sensor_id;sensor_type;location;lat;lon;timestamp;pressure;altitude;pressure_sealevel;temperature
68952;BMP180;56000;51.146;17.112;2023-06-01T00:01:47;100495.60;;;13.10
68952;BMP180;56000;51.146;17.112;2023-06-01T00:04:20;100498.00;;;13.10
68952;BMP180;56000;51.146;17.112;2023-06-01T00:06:53;100493.40;;;13.10
68952;BMP180;56000;51.146;17.112;2023-06-01T00:09:27;100492.20;;;13.10
68952;BMP180;56000;51.146;17.112;2023-06-01T00:12:00;100497.40;;;13.10
68952;BMP180;56000;51.146;17.112;2023-06-01T00:14:33;100493.40;;;13.00
68952;BMP180;56000;51.146;17.112;2023-06-01T00:17:07;100489.60;;;13.00
68952;BMP180;56000;51.146;17.112;2023-06-01T00:19:41;100489.40;;;13.00
68952;BMP180;56000;51.146;17.112;2023-06-01T00:22:16;100486.20;;;13.00
68952;BMP180;56000;51.146;17.112;2023-06-01T00:24:50;100485.60;;;12.90
68952;BMP180;56000;51.146;17.112;2023-06-01T00:27:23;100481.20;;;12.90
68952;BMP180;56000;51.146;17.112;2023-06-01T00:29:57;100483.80;;;12.90
68952;BMP180;56000;51.146;17.112;2023-06-01T00:32:30;100480.00;;;12.88
68952;BMP180;56000;51.146;17.112;2023-06-01T00:35:03;100476.80;;;12.90
68952;BMP180;56000;51.146;17.112;2023-06-01T00:37:36;100481.60;;;12.90
68952;BMP180;56000;51.146;17.112;2023-06-01T00:40:11;100476.20;;;12.86
68952;BMP180;56000;51.146;17.112;2023-06-01T00:42:44;100482.60;;;12.86
68952;BMP180;56000;51.146;17.112;2023-06-01T00:45:18;100478.40;;;12.82
68952;BMP180;56000;51.146;17.112;2023-06-01T00:47:52;100475.20;;;12.80
68952;BMP180;56000;51.146;17.112;2023-06-01T00:50:27;100475.00;;;12.80
68952;BMP180;56000;51.146;17.112;2023-06-01T00:53:02;100477.60;;;12.80
68952;BMP180;56000;51.146;17.112;2023-06-01T00:55:38;100476.40;;;12.80
68952;BMP180;56000;51.146;17.112;2023-06-01T00:58:13;100475.60;;;12.80
68952;BMP180;56000;51.146;17.112;2023-06-01T01:00:47;100478.40;;;12.80
68952;BMP180;56000;51.146;17.112;2023-06-01T01:03:21;100477.80;;;12.88
68952;BMP180;56000;51.146;17.112;2023-06-01T01:06:07;100476.60;;;12.90
68952;BMP180;56000;51.146;17.112;2023-06-01T01:08:52;100476.40;;;12.90
68952;BMP180;56000;51.146;17.112;2023-06-01T01:11:32;100477.80;;;12.88
68952;BMP180;56000;51.146;17.112;2023-06-01T01:14:11;100478.20;;;12.80
68952;BMP180;56000;51.146;17.112;2023-06-01T01:16:59;100477.00;;;12.80
68952;BMP180;56000;51.146;17.112;2023-06-01T01:19:59;100473.40;;;12.70
68952;BMP180;56000;51.146;17.112;2023-06-01T01:23:19;100471.80;;;12.60
68952;BMP180;56000;51.146;17.112;2023-06-01T01:26:20;100474.60;;;12.50
68952;BMP180;56000;51.146;17.112;2023-06-01T01:29:00;100468.60;;;12.50
68952;BMP180;56000;51.146;17.112;2023-06-01T01:31:33;100463.80;;;12.40
68952;BMP180;56000;51.146;17.112;2023-06-01T01:34:08;100467.20;;;12.40
68952;BMP180;56000;51.146;17.112;2023-06-01T01:36:42;100463.60;;;12.36
68952;BMP180;56000;51.146;17.112;2023-06-01T01:39:15;100464.80;;;12.30
68952;BMP180;56000;51.146;17.112;2023-06-01T01:41:48;100458.80;;;12.20
68952;BMP180;56000;51.146;17.112;2023-06-01T01:44:21;100459.40;;;12.20
68952;BMP180;56000;51.146;17.112;2023-06-01T01:47:05;100454.40;;;12.10
68952;BMP180;56000;51.146;17.112;2023-06-01T01:49:45;100458.00;;;12.10
68952;BMP180;56000;51.146;17.112;2023-06-01T01:52:25;100452.80;;;12.10
68952;BMP180;56000;51.146;17.112;2023-06-01T01:54:59;100448.60;;;12.00
68952;BMP180;56000;51.146;17.112;2023-06-01T01:57:34;100450.60;;;12.00
68952;BMP180;56000;51.146;17.112;2023-06-01T02:00:10;100442.60;;;12.00
68952;BMP180;56000;51.146;17.112;2023-06-01T02:02:46;100440.80;;;12.00
68952;BMP180;56000;51.146;17.112;2023-06-01T02:05:19;100441.20;;;11.90
68952;BMP180;56000;51.146;17.112;2023-06-01T02:07:53;100437.60;;;11.90
68952;BMP180;56000;51.146;17.112;2023-06-01T02:10:26;100436.40;;;11.80
68952;BMP180;56000;51.146;17.112;2023-06-01T02:13:00;100434.40;;;11.80
68952;BMP180;56000;51.146;17.112;2023-06-01T02:15:33;100436.20;;;11.80
68952;BMP180;56000;51.146;17.112;2023-06-01T02:18:06;100431.60;;;11.80
68952;BMP180;56000;51.146;17.112;2023-06-01T02:20:40;100428.40;;;11.70
68952;BMP180;56000;51.146;17.112;2023-06-01T02:23:13;100431.60;;;11.70
68952;BMP180;56000;51.146;17.112;2023-06-01T02:25:46;100428.80;;;11.70
68952;BMP180;56000;51.146;17.112;2023-06-01T02:28:19;100427.40;;;11.70
68952;BMP180;56000;51.146;17.112;2023-06-01T02:30:52;100423.00;;;11.60
68952;BMP180;56000;51.146;17.112;2023-06-01T02:33:25;100428.20;;;11.60
68952;BMP180;56000;51.146;17.112;2023-06-01T02:35:59;100430.20;;;11.60
68952;BMP180;56000;51.146;17.112;2023-06-01T02:38:32;100428.60;;;11.60
68952;BMP180;56000;51.146;17.112;2023-06-01T02:41:05;100426.60;;;11.50
68952;BMP180;56000;51.146;17.112;2023-06-01T02:43:38;100424.00;;;11.50
68952;BMP180;56000;51.146;17.112;2023-06-01T02:46:11;100421.40;;;11.52
68952;BMP180;56000;51.146;17.112;2023-06-01T02:48:45;100419.40;;;11.52
68952;BMP180;56000;51.146;17.112;2023-06-01T02:51:18;100418.20;;;11.50
68952;BMP180;56000;51.146;17.112;2023-06-01T02:53:54;100420.20;;;11.52
68952;BMP180;56000;51.146;17.112;2023-06-01T02:56:27;100411.60;;;11.50
68952;BMP180;56000;51.146;17.112;2023-06-01T02:59:14;100406.20;;;11.50
68952;BMP180;56000;51.146;17.112;2023-06-01T03:01:52;100408.60;;;11.50
68952;BMP180;56000;51.146;17.112;2023-06-01T03:04:26;100408.20;;;11.50
68952;BMP180;56000;51.146;17.112;2023-06-01T03:07:01;100408.20;;;11.50
68952;BMP180;56000;51.146;17.112;2023-06-01T03:09:54;100415.00;;;11.50
68952;BMP180;56000;51.146;17.112;2023-06-01T03:12:45;100412.00;;;11.50
68952;BMP180;56000;51.146;17.112;2023-06-01T03:15:18;100411.00;;;11.60
68952;BMP180;56000;51.146;17.112;2023-06-01T03:17:52;100407.80;;;11.60
68952;BMP180;56000;51.146;17.112;2023-06-01T03:20:25;100412.40;;;11.60
68952;BMP180;56000;51.146;17.112;2023-06-01T03:22:58;100412.60;;;11.60
68952;BMP180;56000;51.146;17.112;2023-06-01T03:25:31;100416.20;;;11.68
68952;BMP180;56000;51.146;17.112;2023-06-01T03:28:08;100414.00;;;11.70
68952;BMP180;56000;51.146;17.112;2023-06-01T03:30:41;100413.00;;;11.70
68952;BMP180;56000;51.146;17.112;2023-06-01T03:33:14;100411.20;;;11.80
68952;BMP180;56000;51.146;17.112;2023-06-01T03:35:48;100417.60;;;11.80
68952;BMP180;56000;51.146;17.112;2023-06-01T03:38:21;100415.00;;;11.90
68952;BMP180;56000;51.146;17.112;2023-06-01T03:40:54;100414.00;;;12.00
68952;BMP180;56000;51.146;17.112;2023-06-01T03:43:27;100415.80;;;12.00
68952;BMP180;56000;51.146;17.112;2023-06-01T03:46:01;100413.40;;;12.10
68952;BMP180;56000;51.146;17.112;2023-06-01T03:48:35;100414.40;;;12.16
68952;BMP180;56000;51.146;17.112;2023-06-01T03:51:08;100413.40;;;12.20
68952;BMP180;56000;51.146;17.112;2023-06-01T03:53:41;100410.00;;;12.30
68952;BMP180;56000;51.146;17.112;2023-06-01T03:56:14;100412.60;;;12.38
68952;BMP180;56000;51.146;17.112;2023-06-01T03:58:48;100409.60;;;12.40
68952;BMP180;56000;51.146;17.112;2023-06-01T04:01:21;100406.60;;;12.50
68952;BMP180;56000;51.146;17.112;2023-06-01T04:03:54;100407.40;;;12.60
68952;BMP180;56000;51.146;17.112;2023-06-01T04:06:29;100407.60;;;12.64
68952;BMP180;56000;51.146;17.112;2023-06-01T04:09:07;100399.80;;;12.72
68952;BMP180;56000;51.146;17.112;2023-06-01T04:11:41;100402.80;;;12.86
68952;BMP180;56000;51.146;17.112;2023-06-01T04:14:15;100396.80;;;13.00
68952;BMP180;56000;51.146;17.112;2023-06-01T04:16:48;100395.20;;;13.10
68952;BMP180;56000;51.146;17.112;2023-06-01T04:19:21;100392.00;;;13.20
68952;BMP180;56000;51.146;17.112;2023-06-01T04:22:01;100391.40;;;13.36
68952;BMP180;56000;51.146;17.112;2023-06-01T04:24:34;100392.80;;;13.50
68952;BMP180;56000;51.146;17.112;2023-06-01T04:27:08;100386.60;;;13.60
68952;BMP180;56000;51.146;17.112;2023-06-01T04:29:42;100384.20;;;13.70
68952;BMP180;56000;51.146;17.112;2023-06-01T04:32:15;100374.40;;;13.90
68952;BMP180;56000;51.146;17.112;2023-06-01T04:34:54;100373.80;;;14.10
68952;BMP180;56000;51.146;17.112;2023-06-01T04:37:28;100373.20;;;14.22
68952;BMP180;56000;51.146;17.112;2023-06-01T04:40:01;100376.00;;;14.40
68952;BMP180;56000;51.146;17.112;2023-06-01T04:42:40;100368.00;;;14.50
68952;BMP180;56000;51.146;17.112;2023-06-01T04:45:14;100366.40;;;14.70
68952;BMP180;56000;51.146;17.112;2023-06-01T04:47:48;100365.20;;;15.00
68952;BMP180;56000;51.146;17.112;2023-06-01T04:50:25;100367.00;;;15.36
68952;BMP180;56000;51.146;17.112;2023-06-01T04:53:00;100368.20;;;15.80
68952;BMP180;56000;51.146;17.112;2023-06-01T04:55:34;100364.60;;;15.98
68952;BMP180;56000;51.146;17.112;2023-06-01T04:58:08;100362.40;;;16.00
68952;BMP180;56000;51.146;17.112;2023-06-01T05:00:42;100362.40;;;16.00
68952;BMP180;56000;51.146;17.112;2023-06-01T05:03:15;100357.80;;;16.00
68952;BMP180;56000;51.146;17.112;2023-06-01T05:05:49;100357.80;;;16.00
68952;BMP180;56000;51.146;17.112;2023-06-01T05:08:22;100359.00;;;16.00
68952;BMP180;56000;51.146;17.112;2023-06-01T05:10:55;100356.20;;;16.10
68952;BMP180;56000;51.146;17.112;2023-06-01T05:13:28;100357.60;;;16.20
68952;BMP180;56000;51.146;17.112;2023-06-01T05:16:02;100358.60;;;16.20
68952;BMP180;56000;51.146;17.112;2023-06-01T05:18:36;100357.40;;;16.30
68952;BMP180;56000;51.146;17.112;2023-06-01T05:21:10;100351.40;;;16.40
68952;BMP180;56000;51.146;17.112;2023-06-01T05:23:43;100345.40;;;16.48
68952;BMP180;56000;51.146;17.112;2023-06-01T05:26:16;100349.60;;;16.50
68952;BMP180;56000;51.146;17.112;2023-06-01T05:28:49;100349.60;;;16.68
68952;BMP180;56000;51.146;17.112;2023-06-01T05:31:23;100347.60;;;16.84
68952;BMP180;56000;51.146;17.112;2023-06-01T05:33:58;100347.20;;;17.00
68952;BMP180;56000;51.146;17.112;2023-06-01T05:36:34;100347.60;;;17.20
68952;BMP180;56000;51.146;17.112;2023-06-01T05:39:07;100345.40;;;17.40
68952;BMP180;56000;51.146;17.112;2023-06-01T05:41:40;100344.00;;;17.50
68952;BMP180;56000;51.146;17.112;2023-06-01T05:44:14;100346.20;;;17.60
68952;BMP180;56000;51.146;17.112;2023-06-01T05:46:47;100344.40;;;17.80
68952;BMP180;56000;51.146;17.112;2023-06-01T05:49:21;100344.40;;;17.96
68952;BMP180;56000;51.146;17.112;2023-06-01T05:51:54;100338.80;;;18.10
68952;BMP180;56000;51.146;17.112;2023-06-01T05:54:27;100338.40;;;18.30
68952;BMP180;56000;51.146;17.112;2023-06-01T05:57:00;100335.40;;;18.48
68952;BMP180;56000;51.146;17.112;2023-06-01T05:59:33;100331.60;;;18.60
68952;BMP180;56000;51.146;17.112;2023-06-01T06:02:07;100335.40;;;18.72
68952;BMP180;56000;51.146;17.112;2023-06-01T06:04:41;100331.40;;;18.90
68952;BMP180;56000;51.146;17.112;2023-06-01T06:07:15;100336.20;;;19.14
68952;BMP180;56000;51.146;17.112;2023-06-01T06:09:48;100325.20;;;19.30
68952;BMP180;56000;51.146;17.112;2023-06-01T06:12:21;100330.60;;;19.40
68952;BMP180;56000;51.146;17.112;2023-06-01T06:14:54;100329.40;;;19.50
68952;BMP180;56000;51.146;17.112;2023-06-01T06:17:27;100326.00;;;19.60
68952;BMP180;56000;51.146;17.112;2023-06-01T06:20:00;100327.40;;;19.70
68952;BMP180;56000;51.146;17.112;2023-06-01T06:22:38;100331.40;;;19.80
68952;BMP180;56000;51.146;17.112;2023-06-01T06:25:12;100329.80;;;20.00
68952;BMP180;56000;51.146;17.112;2023-06-01T06:27:45;100326.60;;;20.06
68952;BMP180;56000;51.146;17.112;2023-06-01T06:30:18;100327.60;;;20.20
68952;BMP180;56000;51.146;17.112;2023-06-01T06:32:51;100325.00;;;20.30
68952;BMP180;56000;51.146;17.112;2023-06-01T06:35:25;100327.80;;;20.48
68952;BMP180;56000;51.146;17.112;2023-06-01T06:37:58;100325.60;;;20.58
68952;BMP180;56000;51.146;17.112;2023-06-01T06:40:31;100320.60;;;20.66
68952;BMP180;56000;51.146;17.112;2023-06-01T06:43:04;100319.40;;;20.80
68952;BMP180;56000;51.146;17.112;2023-06-01T06:45:37;100321.60;;;21.00
68952;BMP180;56000;51.146;17.112;2023-06-01T06:48:10;100321.80;;;21.10
68952;BMP180;56000;51.146;17.112;2023-06-01T06:50:44;100324.00;;;21.20
68952;BMP180;56000;51.146;17.112;2023-06-01T06:53:17;100325.00;;;21.30
68952;BMP180;56000;51.146;17.112;2023-06-01T06:55:51;100320.20;;;21.42
68952;BMP180;56000;51.146;17.112;2023-06-01T06:58:24;100318.40;;;21.60
68952;BMP180;56000;51.146;17.112;2023-06-01T07:00:58;100313.40;;;21.66
68952;BMP180;56000;51.146;17.112;2023-06-01T07:03:36;100311.60;;;21.80
68952;BMP180;56000;51.146;17.112;2023-06-01T07:06:10;100309.80;;;21.90
68952;BMP180;56000;51.146;17.112;2023-06-01T07:08:43;100314.00;;;22.00
68952;BMP180;56000;51.146;17.112;2023-06-01T07:11:17;100314.80;;;22.14
68952;BMP180;56000;51.146;17.112;2023-06-01T07:13:50;100309.80;;;22.28
68952;BMP180;56000;51.146;17.112;2023-06-01T07:16:23;100304.80;;;22.38
68952;BMP180;56000;51.146;17.112;2023-06-01T07:18:57;100305.60;;;22.48
68952;BMP180;56000;51.146;17.112;2023-06-01T07:21:30;100299.80;;;22.60
68952;BMP180;56000;51.146;17.112;2023-06-01T07:24:04;100293.40;;;22.70
68952;BMP180;56000;51.146;17.112;2023-06-01T07:26:38;100302.40;;;22.82
68952;BMP180;56000;51.146;17.112;2023-06-01T07:29:11;100300.40;;;23.00
68952;BMP180;56000;51.146;17.112;2023-06-01T07:31:45;100302.80;;;23.10
68952;BMP180;56000;51.146;17.112;2023-06-01T07:34:18;100303.00;;;23.20
68952;BMP180;56000;51.146;17.112;2023-06-01T07:36:52;100303.80;;;23.40
68952;BMP180;56000;51.146;17.112;2023-06-01T07:39:47;100308.20;;;23.50
68952;BMP180;56000;51.146;17.112;2023-06-01T07:42:20;100309.40;;;23.58
68952;BMP180;56000;51.146;17.112;2023-06-01T07:44:54;100308.20;;;23.60
68952;BMP180;56000;51.146;17.112;2023-06-01T07:47:27;100304.00;;;23.60
68952;BMP180;56000;51.146;17.112;2023-06-01T07:50:01;100303.40;;;23.60
68952;BMP180;56000;51.146;17.112;2023-06-01T07:52:34;100303.40;;;23.60
68952;BMP180;56000;51.146;17.112;2023-06-01T07:55:08;100305.00;;;23.60
68952;BMP180;56000;51.146;17.112;2023-06-01T07:57:42;100302.80;;;23.60
68952;BMP180;56000;51.146;17.112;2023-06-01T08:00:17;100300.40;;;23.70
68952;BMP180;56000;51.146;17.112;2023-06-01T08:02:51;100297.20;;;23.80
68952;BMP180;56000;51.146;17.112;2023-06-01T08:05:25;100302.80;;;23.90
68952;BMP180;56000;51.146;17.112;2023-06-01T08:07:58;100298.80;;;24.04
68952;BMP180;56000;51.146;17.112;2023-06-01T08:10:32;100297.00;;;24.10
68952;BMP180;56000;51.146;17.112;2023-06-01T08:13:05;100299.20;;;24.32
68952;BMP180;56000;51.146;17.112;2023-06-01T08:15:41;100293.40;;;24.58
68952;BMP180;56000;51.146;17.112;2023-06-01T08:18:15;100294.80;;;24.74
68952;BMP180;56000;51.146;17.112;2023-06-01T08:20:48;100291.60;;;24.90
68952;BMP180;56000;51.146;17.112;2023-06-01T08:23:21;100292.20;;;25.10
68952;BMP180;56000;51.146;17.112;2023-06-01T08:25:55;100291.00;;;25.18
68952;BMP180;56000;51.146;17.112;2023-06-01T08:28:28;100288.80;;;25.26
68952;BMP180;56000;51.146;17.112;2023-06-01T08:31:01;100287.40;;;25.40
68952;BMP180;56000;51.146;17.112;2023-06-01T08:33:35;100288.00;;;25.50
68952;BMP180;56000;51.146;17.112;2023-06-01T08:36:09;100282.60;;;25.60
68952;BMP180;56000;51.146;17.112;2023-06-01T08:38:43;100287.40;;;25.62
68952;BMP180;56000;51.146;17.112;2023-06-01T08:41:24;100276.20;;;25.70
68952;BMP180;56000;51.146;17.112;2023-06-01T08:44:04;100281.00;;;25.80
68952;BMP180;56000;51.146;17.112;2023-06-01T08:46:39;100278.60;;;25.96
68952;BMP180;56000;51.146;17.112;2023-06-01T08:49:15;100275.80;;;26.00
68952;BMP180;56000;51.146;17.112;2023-06-01T08:51:50;100266.80;;;26.08
68952;BMP180;56000;51.146;17.112;2023-06-01T08:54:24;100259.80;;;26.10
68952;BMP180;56000;51.146;17.112;2023-06-01T08:56:58;100258.40;;;26.28
68952;BMP180;56000;51.146;17.112;2023-06-01T08:59:35;100251.20;;;26.40
68952;BMP180;56000;51.146;17.112;2023-06-01T09:02:09;100251.20;;;26.70
68952;BMP180;56000;51.146;17.112;2023-06-01T09:04:45;100247.20;;;27.06
68952;BMP180;56000;51.146;17.112;2023-06-01T09:07:18;100242.80;;;27.30
68952;BMP180;56000;51.146;17.112;2023-06-01T09:09:52;100241.40;;;27.60
68952;BMP180;56000;51.146;17.112;2023-06-01T09:12:27;100249.40;;;27.74
68952;BMP180;56000;51.146;17.112;2023-06-01T09:15:13;100247.20;;;27.94
68952;BMP180;56000;51.146;17.112;2023-06-01T09:17:50;100251.80;;;28.26
68952;BMP180;56000;51.146;17.112;2023-06-01T09:20:28;100247.20;;;28.60
68952;BMP180;56000;51.146;17.112;2023-06-01T09:23:01;100244.00;;;28.90
68952;BMP180;56000;51.146;17.112;2023-06-01T09:25:35;100239.40;;;29.00
68952;BMP180;56000;51.146;17.112;2023-06-01T09:28:08;100241.60;;;29.24
68952;BMP180;56000;51.146;17.112;2023-06-01T09:30:43;100236.80;;;29.48
68952;BMP180;56000;51.146;17.112;2023-06-01T09:33:18;100235.20;;;29.56
68952;BMP180;56000;51.146;17.112;2023-06-01T09:35:52;100234.40;;;29.70
68952;BMP180;56000;51.146;17.112;2023-06-01T09:38:26;100228.00;;;29.86
68952;BMP180;56000;51.146;17.112;2023-06-01T09:41:01;100235.60;;;30.10
68952;BMP180;56000;51.146;17.112;2023-06-01T09:43:36;100227.80;;;30.30
68952;BMP180;56000;51.146;17.112;2023-06-01T09:46:10;100226.40;;;30.46
68952;BMP180;56000;51.146;17.112;2023-06-01T09:48:45;100223.00;;;30.60
68952;BMP180;56000;51.146;17.112;2023-06-01T09:51:25;100220.20;;;30.70
68952;BMP180;56000;51.146;17.112;2023-06-01T09:54:02;100221.00;;;30.60
68952;BMP180;56000;51.146;17.112;2023-06-01T09:56:46;100215.00;;;30.76
68952;BMP180;56000;51.146;17.112;2023-06-01T09:59:20;100216.00;;;31.16
68952;BMP180;56000;51.146;17.112;2023-06-01T10:01:55;100214.60;;;31.40
68952;BMP180;56000;51.146;17.112;2023-06-01T10:04:30;100219.80;;;31.60
68952;BMP180;56000;51.146;17.112;2023-06-01T10:07:04;100212.80;;;31.84
68952;BMP180;56000;51.146;17.112;2023-06-01T10:09:39;100210.80;;;32.16
68952;BMP180;56000;51.146;17.112;2023-06-01T10:12:13;100205.80;;;32.60
68952;BMP180;56000;51.146;17.112;2023-06-01T10:14:46;100209.80;;;33.00
68952;BMP180;56000;51.146;17.112;2023-06-01T10:17:20;100200.80;;;33.36
68952;BMP180;56000;51.146;17.112;2023-06-01T10:19:53;100204.60;;;33.30
68952;BMP180;56000;51.146;17.112;2023-06-01T10:22:26;100205.00;;;33.24
68952;BMP180;56000;51.146;17.112;2023-06-01T10:25:01;100202.80;;;33.40
68952;BMP180;56000;51.146;17.112;2023-06-01T10:27:40;100195.00;;;33.72
68952;BMP180;56000;51.146;17.112;2023-06-01T10:30:16;100195.20;;;33.70
68952;BMP180;56000;51.146;17.112;2023-06-01T10:32:49;100198.20;;;33.90
68952;BMP180;56000;51.146;17.112;2023-06-01T10:35:54;100186.80;;;34.24
68952;BMP180;56000;51.146;17.112;2023-06-01T10:38:30;100190.40;;;34.74
68952;BMP180;56000;51.146;17.112;2023-06-01T10:41:31;100186.80;;;35.10
68952;BMP180;56000;51.146;17.112;2023-06-01T10:44:04;100192.80;;;35.60
68952;BMP180;56000;51.146;17.112;2023-06-01T10:46:42;100192.80;;;35.76
68952;BMP180;56000;51.146;17.112;2023-06-01T10:49:16;100194.60;;;36.10
68952;BMP180;56000;51.146;17.112;2023-06-01T10:51:49;100190.20;;;36.32
68952;BMP180;56000;51.146;17.112;2023-06-01T10:54:42;100192.40;;;36.90
68952;BMP180;56000;51.146;17.112;2023-06-01T10:57:26;100189.40;;;37.20
68952;BMP180;56000;51.146;17.112;2023-06-01T11:00:22;100179.80;;;37.38
68952;BMP180;56000;51.146;17.112;2023-06-01T11:03:00;100179.80;;;37.50
68952;BMP180;56000;51.146;17.112;2023-06-01T11:05:45;100179.60;;;37.40
68952;BMP180;56000;51.146;17.112;2023-06-01T11:08:56;100182.80;;;37.50
68952;BMP180;56000;51.146;17.112;2023-06-01T11:12:04;100184.80;;;37.98
68952;BMP180;56000;51.146;17.112;2023-06-01T11:14:38;100182.40;;;38.30
68952;BMP180;56000;51.146;17.112;2023-06-01T11:17:32;100176.00;;;38.42
68952;BMP180;56000;51.146;17.112;2023-06-01T11:20:08;100173.80;;;38.50
68952;BMP180;56000;51.146;17.112;2023-06-01T11:22:43;100178.80;;;38.32
68952;BMP180;56000;51.146;17.112;2023-06-01T11:25:19;100174.40;;;38.40
68952;BMP180;56000;51.146;17.112;2023-06-01T11:27:53;100166.00;;;38.74
68952;BMP180;56000;51.146;17.112;2023-06-01T11:30:27;100165.60;;;39.20
68952;BMP180;56000;51.146;17.112;2023-06-01T11:33:01;100168.60;;;39.16
68952;BMP180;56000;51.146;17.112;2023-06-01T11:35:35;100173.40;;;38.66
68952;BMP180;56000;51.146;17.112;2023-06-01T11:38:09;100165.60;;;38.40
68952;BMP180;56000;51.146;17.112;2023-06-01T11:40:59;100156.20;;;38.80
68952;BMP180;56000;51.146;17.112;2023-06-01T11:43:34;100150.20;;;39.58
68952;BMP180;56000;51.146;17.112;2023-06-01T11:46:09;100148.80;;;40.40
68952;BMP180;56000;51.146;17.112;2023-06-01T11:49:04;100148.80;;;40.86
68952;BMP180;56000;51.146;17.112;2023-06-01T11:51:39;100147.40;;;41.50
68952;BMP180;56000;51.146;17.112;2023-06-01T11:54:14;100141.60;;;41.40
68952;BMP180;56000;51.146;17.112;2023-06-01T11:56:47;100144.20;;;41.20
68952;BMP180;56000;51.146;17.112;2023-06-01T11:59:21;100143.00;;;41.24
68952;BMP180;56000;51.146;17.112;2023-06-01T12:01:54;100132.80;;;41.40
68952;BMP180;56000;51.146;17.112;2023-06-01T12:04:27;100135.00;;;41.30
68952;BMP180;56000;51.146;17.112;2023-06-01T12:07:10;100140.60;;;41.18
68952;BMP180;56000;51.146;17.112;2023-06-01T12:09:43;100134.20;;;40.98
68952;BMP180;56000;51.146;17.112;2023-06-01T12:12:16;100121.20;;;41.00
68952;BMP180;56000;51.146;17.112;2023-06-01T12:14:51;100125.00;;;41.30
68952;BMP180;56000;51.146;17.112;2023-06-01T12:17:24;100125.00;;;41.40
68952;BMP180;56000;51.146;17.112;2023-06-01T12:19:58;100122.00;;;41.20
68952;BMP180;56000;51.146;17.112;2023-06-01T12:22:34;100121.60;;;40.62
68952;BMP180;56000;51.146;17.112;2023-06-01T12:25:10;100117.80;;;40.68
68952;BMP180;56000;51.146;17.112;2023-06-01T12:27:43;100111.40;;;41.00
68952;BMP180;56000;51.146;17.112;2023-06-01T12:30:31;100119.00;;;41.30
68952;BMP180;56000;51.146;17.112;2023-06-01T12:33:05;100112.60;;;41.50
68952;BMP180;56000;51.146;17.112;2023-06-01T12:35:50;100115.40;;;41.14
68952;BMP180;56000;51.146;17.112;2023-06-01T12:38:23;100111.80;;;41.10
68952;BMP180;56000;51.146;17.112;2023-06-01T12:41:11;100105.60;;;41.74
68952;BMP180;56000;51.146;17.112;2023-06-01T12:43:48;100104.00;;;42.10
68952;BMP180;56000;51.146;17.112;2023-06-01T12:46:22;100099.20;;;41.90
68952;BMP180;56000;51.146;17.112;2023-06-01T12:49:12;100097.60;;;42.00
68952;BMP180;56000;51.146;17.112;2023-06-01T12:51:45;100096.20;;;41.90
68952;BMP180;56000;51.146;17.112;2023-06-01T12:54:19;100087.40;;;41.80
68952;BMP180;56000;51.146;17.112;2023-06-01T12:56:52;100087.00;;;42.30
68952;BMP180;56000;51.146;17.112;2023-06-01T12:59:25;100089.40;;;42.36
68952;BMP180;56000;51.146;17.112;2023-06-01T13:01:58;100081.20;;;42.30
68952;BMP180;56000;51.146;17.112;2023-06-01T13:04:32;100081.20;;;42.20
68952;BMP180;56000;51.146;17.112;2023-06-01T13:07:05;100082.40;;;42.40
68952;BMP180;56000;51.146;17.112;2023-06-01T13:09:38;100083.20;;;42.66
68952;BMP180;56000;51.146;17.112;2023-06-01T13:12:12;100078.20;;;42.50
68952;BMP180;56000;51.146;17.112;2023-06-01T13:14:45;100080.00;;;43.16
68952;BMP180;56000;51.146;17.112;2023-06-01T13:17:18;100076.20;;;43.28
68952;BMP180;56000;51.146;17.112;2023-06-01T13:19:51;100073.20;;;43.30
68952;BMP180;56000;51.146;17.112;2023-06-01T13:22:25;100069.80;;;43.80
68952;BMP180;56000;51.146;17.112;2023-06-01T13:24:58;100074.40;;;44.40
68952;BMP180;56000;51.146;17.112;2023-06-01T13:27:36;100064.20;;;44.04
68952;BMP180;56000;51.146;17.112;2023-06-01T13:30:11;100064.60;;;43.90
68952;BMP180;56000;51.146;17.112;2023-06-01T13:32:45;100060.20;;;44.10
68952;BMP180;56000;51.146;17.112;2023-06-01T13:35:19;100063.60;;;43.60
68952;BMP180;56000;51.146;17.112;2023-06-01T13:37:52;100071.20;;;43.18
68952;BMP180;56000;51.146;17.112;2023-06-01T13:40:26;100064.00;;;42.36
68952;BMP180;56000;51.146;17.112;2023-06-01T13:43:01;100062.20;;;42.10
68952;BMP180;56000;51.146;17.112;2023-06-01T13:45:34;100057.00;;;42.30
68952;BMP180;56000;51.146;17.112;2023-06-01T13:48:07;100054.60;;;42.60
68952;BMP180;56000;51.146;17.112;2023-06-01T13:50:44;100051.60;;;42.30
68952;BMP180;56000;51.146;17.112;2023-06-01T13:53:17;100049.60;;;42.30
68952;BMP180;56000;51.146;17.112;2023-06-01T13:55:50;100048.20;;;42.56
68952;BMP180;56000;51.146;17.112;2023-06-01T13:58:23;100047.40;;;43.10
68952;BMP180;56000;51.146;17.112;2023-06-01T14:00:56;100047.80;;;42.94
68952;BMP180;56000;51.146;17.112;2023-06-01T14:03:29;100048.00;;;43.00
68952;BMP180;56000;51.146;17.112;2023-06-01T14:06:03;100048.40;;;42.36
68952;BMP180;56000;51.146;17.112;2023-06-01T14:08:36;100044.20;;;42.20
68952;BMP180;56000;51.146;17.112;2023-06-01T14:11:09;100042.20;;;42.00
68952;BMP180;56000;51.146;17.112;2023-06-01T14:13:42;100034.00;;;42.30
68952;BMP180;56000;51.146;17.112;2023-06-01T14:16:15;100033.00;;;42.20
68952;BMP180;56000;51.146;17.112;2023-06-01T14:18:48;100026.00;;;41.90
68952;BMP180;56000;51.146;17.112;2023-06-01T14:21:21;100025.40;;;41.74
68952;BMP180;56000;51.146;17.112;2023-06-01T14:23:55;100026.60;;;41.90
68952;BMP180;56000;51.146;17.112;2023-06-01T14:26:28;100019.80;;;41.80
68952;BMP180;56000;51.146;17.112;2023-06-01T14:29:01;100019.80;;;42.04
68952;BMP180;56000;51.146;17.112;2023-06-01T14:31:34;100022.60;;;41.70